createdAt,value
2022-11-17T00:00:37.509Z,85.63
2022-11-17T00:03:04.407Z,85.42
2022-11-17T00:05:31.062Z,86.15
2022-11-17T00:07:57.887Z,85.63
2022-11-17T00:10:24.496Z,86.05
2022-11-17T00:13:09.646Z,86.01
2022-11-17T00:15:36.287Z,86.08
2022-11-17T00:18:21.759Z,85.59
2022-11-17T00:21:07.289Z,86.25
2022-11-17T00:23:50.061Z,86.47
2022-11-17T00:26:24.205Z,86.47
2022-11-17T00:32:04.635Z,85.46
2022-11-17T00:34:31.391Z,86.16
2022-11-17T00:36:58.075Z,85.71
2022-11-17T00:39:25.046Z,85.78
2022-11-17T00:41:51.845Z,85.00
2022-11-17T00:44:18.621Z,84.58
2022-11-17T00:46:45.320Z,85.57
2022-11-17T00:49:12.908Z,85.38
2022-11-17T00:51:39.647Z,84.97
2022-11-17T00:54:10.013Z,85.18
2022-11-17T00:56:36.904Z,84.88
2022-11-17T00:59:04.115Z,84.71
2022-11-17T01:01:31.498Z,85.26
2022-11-17T01:04:05.756Z,85.34
2022-11-17T01:06:39.262Z,84.85
2022-11-17T01:09:24.680Z,84.00
2022-11-17T01:11:52.698Z,84.39
2022-11-17T01:14:24.776Z,83.77
2022-11-17T01:16:51.996Z,83.68
2022-11-17T01:19:19.217Z,83.87
2022-11-17T01:21:47.005Z,83.87
2022-11-17T01:24:16.185Z,83.80
2022-11-17T01:26:44.279Z,84.13
2022-11-17T01:29:17.419Z,84.05
2022-11-17T01:31:45.381Z,84.20
2022-11-17T01:34:12.429Z,84.29
2022-11-17T01:37:00.721Z,84.83
2022-11-17T01:39:31.089Z,84.95
2022-11-17T01:41:58.719Z,85.92
2022-11-17T01:44:49.729Z,85.78
2022-11-17T01:47:42.607Z,85.95
2022-11-17T01:50:18.078Z,86.39
2022-11-17T01:52:44.980Z,86.42
2022-11-17T01:55:12.532Z,86.87
2022-11-17T01:57:54.263Z,86.56
2022-11-17T02:00:21.285Z,87.22
2022-11-17T02:02:48.617Z,87.34
2022-11-17T02:05:20.985Z,87.06
2022-11-17T02:07:51.423Z,87.06
2022-11-17T02:10:18.289Z,87.78
2022-11-17T02:12:45.835Z,87.91
2022-11-17T02:15:12.659Z,87.84
2022-11-17T02:17:41.272Z,87.92
2022-11-17T02:20:16.198Z,88.53
2022-11-17T02:23:04.693Z,87.93
2022-11-17T02:25:56.284Z,87.90
2022-11-17T02:28:32.814Z,89.06
2022-11-17T02:31:08.268Z,88.62
2022-11-17T02:33:38.957Z,89.73
2022-11-17T02:36:17.262Z,89.68
2022-11-17T02:38:55.735Z,90.22
2022-11-17T02:41:29.246Z,89.98
2022-11-17T02:44:13.588Z,89.66
2022-11-17T02:46:53.831Z,89.77
2022-11-17T02:49:33.108Z,90.75
2022-11-17T02:52:00.649Z,90.16
2022-11-17T02:54:29.406Z,91.37
2022-11-17T02:56:56.313Z,90.95
2022-11-17T02:59:29.582Z,92.04
2022-11-17T03:02:34.904Z,91.49
2022-11-17T03:05:17.366Z,91.58
2022-11-17T03:07:49.654Z,91.66
2022-11-17T03:10:37.616Z,92.15
2022-11-17T03:13:16.631Z,91.71
2022-11-17T03:16:08.254Z,92.24
2022-11-17T03:18:41.836Z,92.99
2022-11-17T03:21:22.742Z,92.41
2022-11-17T03:24:05.482Z,92.16
2022-11-17T03:26:38.428Z,92.99
2022-11-17T03:29:09.101Z,92.54
2022-11-17T03:31:37.874Z,92.62
2022-11-17T03:34:10.326Z,93.54
2022-11-17T03:36:42.198Z,92.99
2022-11-17T03:39:18.320Z,93.18
2022-11-17T03:41:48.464Z,93.20
2022-11-17T03:44:17.865Z,93.23
2022-11-17T03:46:48.929Z,92.50
2022-11-17T03:49:27.828Z,93.56
2022-11-17T03:51:54.722Z,93.68
2022-11-17T03:54:21.438Z,93.29
2022-11-17T03:56:58.130Z,93.10
2022-11-17T03:59:49.193Z,93.54
2022-11-17T04:02:20.434Z,93.20
2022-11-17T04:05:05.557Z,93.08
2022-11-17T04:07:33.651Z,100.00
2022-11-17T04:10:00.532Z,93.31
2022-11-17T04:12:45.946Z,93.62
2022-11-17T04:15:32.121Z,92.99
2022-11-17T04:17:59.191Z,93.64
2022-11-17T04:20:26.064Z,92.67
2022-11-17T04:23:07.816Z,93.24
2022-11-17T04:26:06.922Z,92.54
2022-11-17T04:28:38.573Z,92.83
2022-11-17T04:31:09.743Z,93.00
2022-11-17T04:33:38.086Z,93.00
2022-11-17T04:36:06.037Z,69.66
2022-11-17T04:38:32.981Z,93.00
2022-11-17T04:41:23.417Z,93.61
2022-11-17T04:43:50.568Z,93.01
2022-11-17T04:46:18.158Z,93.10
2022-11-17T04:48:45.414Z,92.71
2022-11-17T04:51:12.396Z,92.71
2022-11-17T04:53:39.360Z,93.52
2022-11-17T04:56:06.456Z,93.37
2022-11-17T04:58:33.448Z,93.87
2022-11-17T05:01:12.641Z,93.25
2022-11-17T05:03:44.780Z,93.29
2022-11-17T05:06:16.969Z,93.99
2022-11-17T05:08:44.851Z,93.69
2022-11-17T05:11:31.938Z,93.95
2022-11-17T05:13:59.092Z,94.18
2022-11-17T05:16:44.689Z,93.86
2022-11-17T05:19:19.839Z,94.03
2022-11-17T05:21:46.995Z,93.96
2022-11-17T05:24:14.909Z,93.12
2022-11-17T05:26:43.263Z,93.43
2022-11-17T05:29:11.921Z,94.05
2022-11-17T05:31:38.644Z,93.41
2022-11-17T05:34:07.369Z,93.59
2022-11-17T05:36:34.416Z,93.38
2022-11-17T05:39:01.212Z,93.49
2022-11-17T05:41:28.989Z,93.83
2022-11-17T05:43:56.579Z,93.87
2022-11-17T05:46:24.462Z,93.83
2022-11-17T05:48:51.649Z,93.94
2022-11-17T05:51:21.204Z,93.43
2022-11-17T05:53:48.490Z,93.53
2022-11-17T05:56:32.399Z,93.33
2022-11-17T05:59:05.233Z,93.10
2022-11-17T06:01:39.100Z,93.66
2022-11-17T06:04:07.473Z,93.50
2022-11-17T06:06:36.412Z,93.73
2022-11-17T06:09:04.321Z,93.36
2022-11-17T06:11:31.027Z,100.00
2022-11-17T06:13:57.696Z,93.63
2022-11-17T06:16:28.120Z,93.73
2022-11-17T06:19:02.760Z,93.33
2022-11-17T06:21:43.204Z,93.37
2022-11-17T06:24:17.390Z,93.33
2022-11-17T06:26:44.797Z,93.14
2022-11-17T06:29:13.075Z,93.35
2022-11-17T06:31:41.709Z,93.03
2022-11-17T06:34:09.615Z,93.42
2022-11-17T06:36:36.256Z,93.59
2022-11-17T06:39:05.924Z,93.27
2022-11-17T06:41:32.688Z,92.91
2022-11-17T06:43:59.358Z,93.53
2022-11-17T06:46:38.000Z,93.14
2022-11-17T06:49:08.404Z,92.97
2022-11-17T06:51:37.266Z,93.50
2022-11-17T06:54:08.707Z,93.62
2022-11-17T06:56:35.467Z,93.14
2022-11-17T06:59:02.202Z,93.24
2022-11-17T07:01:28.945Z,93.18
2022-11-17T07:03:55.640Z,93.08
2022-11-17T07:06:22.378Z,93.32
2022-11-17T07:08:51.700Z,93.56
2022-11-17T07:11:18.364Z,93.17
2022-11-17T07:13:45.184Z,92.73
2022-11-17T07:16:18.679Z,93.22
2022-11-17T07:18:48.539Z,92.86
2022-11-17T07:21:15.699Z,92.96
2022-11-17T07:23:44.453Z,93.06
2022-11-17T07:26:11.506Z,93.18
2022-11-17T07:28:38.390Z,92.83
2022-11-17T07:31:07.842Z,93.15
2022-11-17T07:33:35.154Z,92.93
2022-11-17T07:36:06.039Z,92.99
2022-11-17T07:38:34.605Z,92.32
2022-11-17T07:41:01.656Z,92.96
2022-11-17T07:43:28.962Z,93.20
2022-11-17T07:45:55.829Z,92.47
2022-11-17T07:48:22.924Z,93.02
2022-11-17T07:50:49.848Z,93.16
2022-11-17T07:53:16.642Z,92.94
2022-11-17T07:55:43.798Z,93.11
2022-11-17T07:58:10.544Z,92.81
2022-11-17T08:00:37.197Z,93.03
2022-11-17T08:03:05.106Z,93.78
2022-11-17T08:05:39.899Z,93.12
2022-11-17T08:08:10.046Z,93.04
2022-11-17T08:10:37.137Z,93.47
2022-11-17T08:13:04.225Z,93.53
2022-11-17T08:15:31.550Z,93.58
2022-11-17T08:18:00.080Z,93.18
2022-11-17T08:20:29.341Z,93.41
2022-11-17T08:22:56.745Z,93.40
2022-11-17T08:25:26.110Z,93.05
2022-11-17T08:27:59.236Z,93.48
2022-11-17T08:30:27.036Z,93.65
2022-11-17T08:32:54.556Z,93.33
2022-11-17T08:35:24.845Z,93.17
2022-11-17T08:37:52.196Z,92.92
2022-11-17T08:40:18.926Z,92.92
2022-11-17T08:42:46.157Z,92.94
2022-11-17T08:45:13.933Z,92.65
2022-11-17T08:47:40.906Z,93.39
2022-11-17T08:50:08.035Z,93.08
2022-11-17T08:52:34.756Z,93.69
2022-11-17T08:55:02.311Z,93.15
2022-11-17T08:57:33.015Z,93.07
2022-11-17T09:00:01.052Z,92.90
2022-11-17T09:02:28.107Z,92.83
2022-11-17T09:04:54.734Z,92.34
2022-11-17T09:07:21.448Z,93.22
2022-11-17T09:09:48.728Z,92.48
2022-11-17T09:12:15.606Z,92.92
2022-11-17T09:14:42.422Z,92.46
2022-11-17T09:17:09.058Z,93.05
2022-11-17T09:19:35.803Z,92.92
2022-11-17T09:22:02.632Z,93.30
2022-11-17T09:24:29.286Z,93.30
2022-11-17T09:26:57.541Z,93.42
2022-11-17T09:29:24.339Z,93.54
2022-11-17T09:31:51.106Z,93.20
2022-11-17T09:34:17.976Z,93.76
2022-11-17T09:36:44.842Z,93.89
2022-11-17T09:39:11.574Z,93.19
2022-11-17T09:41:45.817Z,93.58
2022-11-17T09:44:39.869Z,93.87
2022-11-17T09:47:34.002Z,93.47
2022-11-17T09:50:23.584Z,93.56
2022-11-17T09:53:07.107Z,93.69
2022-11-17T09:55:40.375Z,93.06
2022-11-17T09:58:30.299Z,93.09
2022-11-17T10:00:58.798Z,93.25
2022-11-17T10:03:33.233Z,93.02
2022-11-17T10:06:03.490Z,93.12
2022-11-17T10:08:46.156Z,92.98
2022-11-17T10:11:32.745Z,93.28
2022-11-17T10:14:02.877Z,93.20
2022-11-17T10:16:30.755Z,93.76
2022-11-17T10:18:57.670Z,93.22
2022-11-17T10:21:24.429Z,93.24
2022-11-17T10:23:58.172Z,93.06
2022-11-17T10:26:25.390Z,92.96
2022-11-17T10:29:11.073Z,93.58
2022-11-17T10:31:43.610Z,93.05
2022-11-17T10:34:12.956Z,93.15
2022-11-17T10:36:48.006Z,92.77
2022-11-17T10:39:36.115Z,93.50
2022-11-17T10:42:23.053Z,92.97
2022-11-17T10:44:53.052Z,93.09
2022-11-17T10:47:32.037Z,93.35
2022-11-17T10:50:14.851Z,92.98
2022-11-17T10:52:41.742Z,92.79
2022-11-17T10:55:34.782Z,92.82
2022-11-17T10:58:09.546Z,92.77
2022-11-17T11:00:37.265Z,92.73
2022-11-17T11:03:19.758Z,92.30
2022-11-17T11:05:57.588Z,91.82
2022-11-17T11:08:29.521Z,92.67
2022-11-17T11:10:58.783Z,92.71
2022-11-17T11:13:36.124Z,92.45
2022-11-17T11:16:03.090Z,92.66
2022-11-17T11:18:32.092Z,92.33
2022-11-17T11:21:13.727Z,93.09
2022-11-17T11:24:01.375Z,92.80
2022-11-17T11:26:36.973Z,92.66
2022-11-17T11:29:51.087Z,92.79
2022-11-17T11:32:29.722Z,92.63
2022-11-17T11:35:17.035Z,92.95
2022-11-17T11:38:21.697Z,92.83
2022-11-17T11:41:26.093Z,92.72
2022-11-17T11:44:17.700Z,92.73
2022-11-17T11:47:07.346Z,92.70
2022-11-17T11:49:50.551Z,92.70
2022-11-17T11:52:24.738Z,92.36
2022-11-17T11:54:59.152Z,92.71
2022-11-17T11:57:30.970Z,92.51
2022-11-17T12:00:05.011Z,92.82
2022-11-17T12:02:44.544Z,92.43
2022-11-17T12:05:28.839Z,92.43
2022-11-17T12:08:26.565Z,92.29
2022-11-17T12:11:32.394Z,92.04
2022-11-17T12:14:00.453Z,91.74
2022-11-17T12:16:36.835Z,91.96
2022-11-17T12:19:42.554Z,91.77
2022-11-17T12:22:11.368Z,91.69
2022-11-17T12:24:41.854Z,91.93
2022-11-17T12:27:36.331Z,90.67
2022-11-17T12:30:05.709Z,90.01
2022-11-17T12:32:44.430Z,89.27
2022-11-17T12:35:30.608Z,87.00
2022-11-17T12:38:15.786Z,84.76
2022-11-17T12:40:50.223Z,84.31
2022-11-17T12:43:16.915Z,83.86
2022-11-17T12:45:52.562Z,84.26
2022-11-17T12:48:34.096Z,85.09
2022-11-17T12:51:06.780Z,85.63
2022-11-17T12:53:56.872Z,84.42
2022-11-17T12:56:32.578Z,85.41
2022-11-17T12:59:14.042Z,84.08
2022-11-17T13:02:04.946Z,84.57
2022-11-17T13:04:53.071Z,80.67
2022-11-17T13:07:25.862Z,81.29
2022-11-17T13:09:57.808Z,82.77
2022-11-17T13:12:29.194Z,81.96
2022-11-17T13:14:58.313Z,82.80
2022-11-17T13:17:41.050Z,82.88
2022-11-17T13:20:29.750Z,81.97
2022-11-17T13:23:20.751Z,83.15
2022-11-17T13:25:47.906Z,83.19
2022-11-17T13:28:32.271Z,82.87
2022-11-17T13:31:00.931Z,82.65
2022-11-17T13:33:28.810Z,82.64
2022-11-17T13:36:16.986Z,82.80
2022-11-17T13:38:48.578Z,82.32
2022-11-17T13:41:17.758Z,81.49
2022-11-17T13:43:46.462Z,82.97
2022-11-17T13:46:13.286Z,82.38
2022-11-17T13:48:42.724Z,82.29
2022-11-17T13:51:18.110Z,82.84
2022-11-17T13:53:48.098Z,82.50
2022-11-17T13:56:29.031Z,83.32
2022-11-17T13:58:56.957Z,82.22
2022-11-17T14:01:31.144Z,82.73
2022-11-17T14:04:20.688Z,83.58
2022-11-17T14:06:54.005Z,83.95
2022-11-17T14:09:21.644Z,84.32
2022-11-17T14:11:48.809Z,84.00
2022-11-17T14:14:20.825Z,82.80
2022-11-17T14:16:47.605Z,83.08
2022-11-17T14:19:17.130Z,82.98
2022-11-17T14:22:03.335Z,82.58
2022-11-17T14:24:33.116Z,82.38
2022-11-17T14:27:00.163Z,82.35
2022-11-17T14:29:30.955Z,83.26
2022-11-17T14:31:57.752Z,83.64
2022-11-17T14:34:24.504Z,84.20
2022-11-17T14:36:54.657Z,84.59
2022-11-17T14:39:22.079Z,85.94
2022-11-17T14:41:50.348Z,85.47
2022-11-17T14:44:17.698Z,86.03
2022-11-17T14:46:44.403Z,86.02
2022-11-17T14:49:11.126Z,86.01
2022-11-17T14:51:38.044Z,86.61
2022-11-17T14:54:04.800Z,86.48
2022-11-17T14:56:31.594Z,86.68
2022-11-17T14:58:59.620Z,87.25
2022-11-17T15:01:30.540Z,87.43
2022-11-17T15:04:04.167Z,87.06
2022-11-17T15:06:42.347Z,87.17
2022-11-17T15:09:14.028Z,87.13
2022-11-17T15:11:40.686Z,87.85
2022-11-17T15:14:07.600Z,87.34
2022-11-17T15:16:34.512Z,87.34
2022-11-17T15:19:02.509Z,87.58
2022-11-17T15:21:29.144Z,87.66
2022-11-17T15:23:55.897Z,87.59
2022-11-17T15:26:27.336Z,87.19
2022-11-17T15:28:58.144Z,87.77
2022-11-17T15:31:24.881Z,88.29
2022-11-17T15:33:51.682Z,87.88
2022-11-17T15:36:21.091Z,87.95
2022-11-17T15:38:47.984Z,88.05
2022-11-17T15:41:15.908Z,88.41
2022-11-17T15:43:44.405Z,88.36
2022-11-17T15:46:13.437Z,88.28
2022-11-17T15:48:45.038Z,88.65
2022-11-17T15:51:17.095Z,88.53
2022-11-17T15:53:45.518Z,88.64
2022-11-17T15:56:26.713Z,89.23
2022-11-17T15:58:59.158Z,88.83
2022-11-17T16:01:28.103Z,88.93
2022-11-17T16:04:01.077Z,88.89
2022-11-17T16:06:32.436Z,88.89
2022-11-17T16:08:59.274Z,89.15
2022-11-17T16:11:27.141Z,89.14
2022-11-17T16:13:57.719Z,88.92
2022-11-17T16:16:28.149Z,89.52
2022-11-17T16:18:54.907Z,89.13
2022-11-17T16:21:21.673Z,89.72
2022-11-17T16:24:08.321Z,89.88
2022-11-17T16:26:36.058Z,89.27
2022-11-17T16:29:06.180Z,89.44
2022-11-17T16:31:34.805Z,89.36
2022-11-17T16:34:06.603Z,88.98
2022-11-17T16:36:37.474Z,89.20
2022-11-17T16:39:06.855Z,88.88
2022-11-17T16:41:36.373Z,89.56
2022-11-17T16:44:08.197Z,88.71
2022-11-17T16:46:34.900Z,88.88
2022-11-17T16:49:06.965Z,89.01
2022-11-17T16:51:34.966Z,89.19
2022-11-17T16:54:04.298Z,88.99
2022-11-17T16:56:31.868Z,88.68
2022-11-17T16:58:59.053Z,89.41
2022-11-17T17:01:30.446Z,89.33
2022-11-17T17:04:01.688Z,89.10
2022-11-17T17:06:28.932Z,89.58
2022-11-17T17:09:00.527Z,88.72
2022-11-17T17:11:29.357Z,89.20
2022-11-17T17:14:00.252Z,88.96
2022-11-17T17:16:27.204Z,89.02
2022-11-17T17:18:56.457Z,89.00
2022-11-17T17:21:23.882Z,89.56
2022-11-17T17:23:50.930Z,89.16
2022-11-17T17:26:19.807Z,89.61
2022-11-17T17:28:48.557Z,89.20
2022-11-17T17:31:22.007Z,88.76
2022-11-17T17:33:51.185Z,88.95
2022-11-17T17:36:21.278Z,88.91
2022-11-17T17:38:55.122Z,88.64
2022-11-17T17:41:27.601Z,88.53
2022-11-17T17:43:58.644Z,88.92
2022-11-17T17:46:26.101Z,89.30
2022-11-17T17:48:52.888Z,88.97
2022-11-17T17:51:21.403Z,89.58
2022-11-17T17:53:50.312Z,89.08
2022-11-17T17:56:19.189Z,89.61
2022-11-17T17:58:49.206Z,89.48
2022-11-17T18:01:19.185Z,89.74
2022-11-17T18:03:48.280Z,89.98
2022-11-17T18:06:17.425Z,89.93
2022-11-17T18:08:44.537Z,89.97
2022-11-17T18:11:18.626Z,90.77
2022-11-17T18:13:48.611Z,90.34
2022-11-17T18:16:21.628Z,90.86
2022-11-17T18:18:49.387Z,90.33
2022-11-17T18:21:19.841Z,90.74
2022-11-17T18:23:46.800Z,90.71
2022-11-17T18:26:21.564Z,90.26
2022-11-17T18:28:56.736Z,90.99
2022-11-17T18:31:25.487Z,90.66
2022-11-17T18:33:54.238Z,90.81
2022-11-17T18:36:21.648Z,90.85
2022-11-17T18:38:49.655Z,90.20
2022-11-17T18:41:17.841Z,90.81
2022-11-17T18:43:44.752Z,90.31
2022-11-17T18:46:13.957Z,90.88
2022-11-17T18:48:43.354Z,91.11
2022-11-17T18:51:20.798Z,91.02
2022-11-17T18:53:49.504Z,91.03
2022-11-17T18:56:18.879Z,90.28
2022-11-17T18:58:45.984Z,90.75
2022-11-17T19:01:14.877Z,90.91
2022-11-17T19:03:43.379Z,90.11
2022-11-17T19:06:12.353Z,90.29
2022-11-17T19:08:39.184Z,90.48
2022-11-17T19:11:07.764Z,90.64
2022-11-17T19:13:36.818Z,90.17
2022-11-17T19:16:07.664Z,90.46
2022-11-17T19:18:34.945Z,89.98
2022-11-17T19:21:08.816Z,90.69
2022-11-17T19:23:37.533Z,90.05
2022-11-17T19:26:06.377Z,90.09
2022-11-17T19:28:33.806Z,90.37
2022-11-17T19:31:02.216Z,90.63
2022-11-17T19:33:30.590Z,90.58
2022-11-17T19:35:57.683Z,90.63
2022-11-17T19:38:24.325Z,90.65
2022-11-17T19:40:51.115Z,90.94
2022-11-17T19:43:19.339Z,90.79
2022-11-17T19:45:46.084Z,91.91
2022-11-17T19:48:12.739Z,91.28
2022-11-17T19:50:39.612Z,91.61
2022-11-17T19:53:06.290Z,92.24
2022-11-17T19:55:34.471Z,92.61
2022-11-17T19:58:01.210Z,92.53
2022-11-17T20:00:27.901Z,92.25
2022-11-17T20:02:54.598Z,93.10
2022-11-17T20:05:21.427Z,92.23
2022-11-17T20:07:50.255Z,92.76
2022-11-17T20:10:18.628Z,92.38
2022-11-17T20:12:46.806Z,92.87
2022-11-17T20:15:33.150Z,92.59
2022-11-17T20:18:00.253Z,92.20
2022-11-17T20:20:26.906Z,92.22
2022-11-17T20:22:53.578Z,93.12
2022-11-17T20:25:20.286Z,92.44
2022-11-17T20:27:46.925Z,92.25
2022-11-17T20:30:15.330Z,92.21
2022-11-17T20:32:42.460Z,93.28
2022-11-17T20:35:09.364Z,92.25
2022-11-17T20:37:36.010Z,92.62
2022-11-17T20:40:02.780Z,92.98
2022-11-17T20:42:29.483Z,92.93
2022-11-17T20:44:56.425Z,92.95
2022-11-17T20:47:28.759Z,91.86
2022-11-17T20:49:55.629Z,92.08
2022-11-17T20:52:22.310Z,92.32
2022-11-17T20:54:49.198Z,92.86
2022-11-17T20:57:19.112Z,92.57
2022-11-17T20:59:46.007Z,92.65
2022-11-17T21:02:12.868Z,93.22
2022-11-17T21:04:39.533Z,93.56
2022-11-17T21:07:06.234Z,93.10
2022-11-17T21:09:33.016Z,93.38
2022-11-17T21:12:00.294Z,92.63
2022-11-17T21:14:28.048Z,94.03
2022-11-17T21:16:56.263Z,93.61
2022-11-17T21:19:23.997Z,94.00
2022-11-17T21:21:54.223Z,93.87
2022-11-17T21:24:22.797Z,94.21
2022-11-17T21:26:54.603Z,93.89
2022-11-17T21:29:22.179Z,94.26
2022-11-17T21:31:49.068Z,94.16
2022-11-17T21:34:17.124Z,94.69
2022-11-17T21:36:43.897Z,94.09
2022-11-17T21:39:16.711Z,94.03
2022-11-17T21:41:43.691Z,94.14
2022-11-17T21:44:11.937Z,93.97
2022-11-17T21:46:38.644Z,93.87
2022-11-17T21:49:05.369Z,94.36
2022-11-17T21:51:38.579Z,94.30
2022-11-17T21:54:10.095Z,94.30
2022-11-17T21:56:37.535Z,94.70
2022-11-17T21:59:06.981Z,94.32
2022-11-17T22:01:35.106Z,94.83
2022-11-17T22:04:01.984Z,94.96
2022-11-17T22:06:28.948Z,94.11
2022-11-17T22:08:56.987Z,94.56
2022-11-17T22:11:35.592Z,93.87
2022-11-17T22:14:07.700Z,94.11
2022-11-17T22:16:36.953Z,94.41
2022-11-17T22:19:04.165Z,94.68
2022-11-17T22:21:31.578Z,94.89
2022-11-17T22:23:58.397Z,94.42
2022-11-17T22:26:25.252Z,94.31
2022-11-17T22:28:53.843Z,93.80
2022-11-17T22:31:21.208Z,94.94
2022-11-17T22:33:49.460Z,94.63
2022-11-17T22:36:17.073Z,94.79
2022-11-17T22:38:44.418Z,94.89
2022-11-17T22:41:12.795Z,93.56
2022-11-17T22:43:39.836Z,93.99
2022-11-17T22:46:09.962Z,94.14
2022-11-17T22:48:37.936Z,94.63
2022-11-17T22:51:05.459Z,94.47
2022-11-17T22:53:33.430Z,93.85
2022-11-17T22:56:05.195Z,93.64
2022-11-17T22:58:32.211Z,93.90
2022-11-17T23:01:05.252Z,94.26
2022-11-17T23:03:32.739Z,93.74
2022-11-17T23:06:04.097Z,94.08
2022-11-17T23:08:31.167Z,93.07
2022-11-17T23:11:36.612Z,93.77
2022-11-17T23:13:52.864Z,93.83
2022-11-17T23:16:19.819Z,93.21
2022-11-17T23:18:46.709Z,93.07
2022-11-17T23:21:13.961Z,93.42
2022-11-17T23:23:41.187Z,93.13
2022-11-17T23:26:11.082Z,93.69
2022-11-17T23:28:38.903Z,94.05
2022-11-17T23:31:09.565Z,93.74
2022-11-17T23:33:41.457Z,94.54
2022-11-17T23:36:14.069Z,94.75
2022-11-17T23:38:41.132Z,94.09
2022-11-17T23:41:10.418Z,94.40
2022-11-17T23:43:37.802Z,94.26
2022-11-17T23:46:12.561Z,94.72
2022-11-17T23:48:39.969Z,94.77
2022-11-17T23:51:09.604Z,94.02
2022-11-17T23:53:37.189Z,94.72
2022-11-17T23:56:05.032Z,94.49
2022-11-17T23:58:32.140Z,94.41
